Ages, Kentucky
Current Conditions -  °F | °C
As of 1:55 PM on Friday 21 Nov 2014 (Local Time) from KI35 Reporting Station
Clear Clear  
Wind Chill: 43°   Ceiling: Unl
Heat Index: 43°   Visibility: 10mi
Dew Point: 10°   Wind: 0mph
Humidity: 27%   Direction: NA
Pressure: 30.42"   Gusts: NA
Location:  36.8576°N, 83.2467°W
Report Text: KI35 211855Z AUTO 00000KT 10SM CLR 06/M12 A3042 RMK AO1
Loading
Personal Weather Stations






























Interactive Weather Map New forecast layout! Learn more

10-Day Weather Forecast

Advertisements
Track Severe Weather on mobile